Time;durP1;ratioP1;P1;durP2;ratioP2;P2;SDS_P1;SDS_P2;PMS_P1;PMS_P2;Temp;Humidity;BMP_temperature;BMP_pressure;BME280_temperature;BME280_humidity;BME280_pressure;Samples;Min_cycle;Max_cycle;Signal;HPM_P1;HPM_P2
2022/08/08 00:01:51;;;;;;;2.67;2.47;;;;;;;;;;5070137;28;20498;-74
2022/08/08 00:04:38;;;;;;;2.50;2.30;;;;;;;;;;5071189;28;20425;-74
2022/08/08 00:07:17;;;;;;;2.30;2.20;;;;;;;;;;5054657;28;20456;-74
2022/08/08 00:09:52;;;;;;;4.03;2.83;;;;;;;;;;5071039;28;20459;-74
2022/08/08 00:12:25;;;;;;;5.27;2.10;;;;;;;;;;5069896;28;20886;-74
2022/08/08 00:15:00;;;;;;;4.33;2.50;;;;;;;;;;5086817;28;20424;-74
2022/08/08 00:17:42;;;;;;;5.00;2.77;;;;;;;;;;5069485;28;20982;-74
2022/08/08 00:20:28;;;;;;;8.87;2.40;;;;;;;;;;5069483;28;20519;-74
2022/08/08 00:22:57;;;;;;;2.60;2.40;;;;;;;;;;5070548;28;20482;-74
2022/08/08 00:25:27;;;;;;;2.77;2.30;;;;;;;;;;5071125;28;20528;-74
2022/08/08 00:28:17;;;;;;;3.00;2.80;;;;;;;;;;5087284;28;20444;-74
2022/08/08 00:31:06;;;;;;;3.30;2.30;;;;;;;;;;5076725;28;20439;-74
2022/08/08 00:35:09;;;;;;;3.10;1.97;;;;;;;;;;5092922;28;20490;-74
2022/08/08 00:36:59;;;;;;;4.73;2.20;;;;;;;;;;5083676;28;20460;-74
2022/08/08 00:39:46;;;;;;;2.47;2.27;;;;;;;;;;5072897;28;20939;-74
2022/08/08 00:42:36;;;;;;;4.10;2.37;;;;;;;;;;5055573;28;20432;-74
2022/08/08 00:45:07;;;;;;;2.47;2.33;;;;;;;;;;5072124;28;20404;-74
2022/08/08 00:48:13;;;;;;;2.47;2.30;;;;;;;;;;5068547;28;20492;-74
2022/08/08 00:51:06;;;;;;;2.40;2.20;;;;;;;;;;5081090;28;20440;-74
2022/08/08 00:53:50;;;;;;;2.70;2.13;;;;;;;;;;5066536;28;20438;-74
2022/08/08 00:56:51;;;;;;;2.40;2.27;;;;;;;;;;5054681;28;20517;-74
2022/08/08 00:59:33;;;;;;;2.90;2.17;;;;;;;;;;5050664;28;20491;-74
2022/08/08 01:02:30;;;;;;;3.73;2.53;;;;;;;;;;5072453;28;20996;-74
2022/08/08 01:05:38;;;;;;;2.10;2.00;;;;;;;;;;5074304;28;20440;-74
2022/08/08 01:08:45;;;;;;;2.30;2.20;;;;;;;;;;5022895;28;20474;-74
2022/08/08 01:11:26;;;;;;;2.70;2.50;;;;;;;;;;5083792;28;20498;-74
2022/08/08 01:14:01;;;;;;;2.70;2.33;;;;;;;;;;5090079;28;20488;-74
2022/08/08 01:16:48;;;;;;;2.60;2.40;;;;;;;;;;5089542;28;21211;-74
2022/08/08 01:19:38;;;;;;;2.20;2.10;;;;;;;;;;5013357;28;20437;-74
2022/08/08 01:22:44;;;;;;;2.70;2.40;;;;;;;;;;5060138;28;20460;-74
2022/08/08 01:25:23;;;;;;;2.70;2.57;;;;;;;;;;5070431;28;20483;-74
2022/08/08 01:28:28;;;;;;;3.63;2.63;;;;;;;;;;5077181;28;20461;-74
2022/08/08 01:31:05;;;;;;;2.27;2.17;;;;;;;;;;5081666;28;20432;-74
2022/08/08 01:34:11;;;;;;;2.87;2.67;;;;;;;;;;5075192;28;20892;-74
2022/08/08 01:37:02;;;;;;;3.07;2.20;;;;;;;;;;5063058;28;20463;-74
2022/08/08 01:39:32;;;;;;;5.33;2.43;;;;;;;;;;5059339;28;20501;-74
2022/08/08 01:42:14;;;;;;;3.10;2.80;;;;;;;;;;5087365;28;20459;-74
2022/08/08 01:45:01;;;;;;;2.67;2.47;;;;;;;;;;5076013;28;20854;-74
2022/08/08 01:47:46;;;;;;;3.47;2.73;;;;;;;;;;5060278;28;20510;-74
2022/08/08 01:50:42;;;;;;;3.47;2.50;;;;;;;;;;5077441;28;20526;-74
2022/08/08 01:53:38;;;;;;;3.90;2.60;;;;;;;;;;5096118;28;20499;-74
2022/08/08 01:56:41;;;;;;;5.13;3.07;;;;;;;;;;5068412;28;20429;-74
2022/08/08 01:59:26;;;;;;;6.23;2.70;;;;;;;;;;5089623;28;20971;-74
2022/08/08 02:02:37;;;;;;;2.83;2.53;;;;;;;;;;5077249;28;20470;-74
2022/08/08 02:05:23;;;;;;;3.00;2.80;;;;;;;;;;5081056;28;20490;-74
2022/08/08 02:08:08;;;;;;;3.30;3.00;;;;;;;;;;5084898;28;20449;-74
2022/08/08 02:10:54;;;;;;;6.00;3.33;;;;;;;;;;5088586;28;20468;-74
2022/08/08 02:13:25;;;;;;;3.07;2.77;;;;;;;;;;5062075;28;20445;-74
2022/08/08 02:16:13;;;;;;;3.60;3.30;;;;;;;;;;5076422;28;20471;-74
2022/08/08 02:18:56;;;;;;;4.47;3.07;;;;;;;;;;5073218;28;20440;-74
2022/08/08 02:24:17;;;;;;;5.10;3.00;;;;;;;;;;5074329;28;20806;-74
2022/08/08 02:27:02;;;;;;;3.40;3.10;;;;;;;;;;5060446;28;20459;-74
2022/08/08 02:29:48;;;;;;;5.90;3.10;;;;;;;;;;5077361;28;20948;-74
2022/08/08 02:32:35;;;;;;;4.53;3.27;;;;;;;;;;5064429;28;20441;-74
2022/08/08 02:35:02;;;;;;;3.27;3.00;;;;;;;;;;5079877;28;20814;-74
2022/08/08 02:37:55;;;;;;;3.53;3.20;;;;;;;;;;5079794;28;20460;-74
2022/08/08 02:40:36;;;;;;;4.10;3.80;;;;;;;;;;5074090;28;20432;-74
2022/08/08 02:43:04;;;;;;;3.10;2.73;;;;;;;;;;5055390;28;20464;-74
2022/08/08 02:46:10;;;;;;;4.27;3.03;;;;;;;;;;5081692;28;20428;-74
2022/08/08 02:48:52;;;;;;;3.63;3.10;;;;;;;;;;5083823;28;20486;-74
2022/08/08 02:51:43;;;;;;;4.03;2.33;;;;;;;;;;5079577;28;20497;-74
2022/08/08 02:54:31;;;;;;;3.23;2.93;;;;;;;;;;5040578;28;20433;-74
2022/08/08 02:57:09;;;;;;;5.37;2.87;;;;;;;;;;5064813;28;20510;-74
2022/08/08 02:59:51;;;;;;;2.80;2.60;;;;;;;;;;5060700;28;21349;-74
2022/08/08 03:02:57;;;;;;;2.87;2.67;;;;;;;;;;5072953;28;20439;-74
2022/08/08 03:05:29;;;;;;;3.33;3.03;;;;;;;;;;5087715;28;20522;-74
2022/08/08 03:08:47;;;;;;;5.20;3.00;;;;;;;;;;5078367;28;20456;-74
2022/08/08 03:11:41;;;;;;;3.90;3.10;;;;;;;;;;4999857;28;20447;-74
2022/08/08 03:14:47;;;;;;;5.23;3.17;;;;;;;;;;5075103;28;20428;-74
2022/08/08 03:17:46;;;;;;;2.70;2.27;;;;;;;;;;5068205;28;20480;-74
2022/08/08 03:20:43;;;;;;;4.00;3.20;;;;;;;;;;5039004;28;20469;-74
2022/08/08 03:23:21;;;;;;;2.60;2.37;;;;;;;;;;5067954;28;20578;-74
2022/08/08 03:25:49;;;;;;;4.40;3.00;;;;;;;;;;5061242;28;20509;-74
2022/08/08 03:28:24;;;;;;;4.00;3.00;;;;;;;;;;5052511;28;20449;-74
2022/08/08 03:30:52;;;;;;;4.23;3.47;;;;;;;;;;5053133;28;20778;-74
2022/08/08 03:33:39;;;;;;;3.50;3.20;;;;;;;;;;5066432;28;20921;-74
2022/08/08 03:36:27;;;;;;;7.13;3.63;;;;;;;;;;5081213;28;20433;-74
2022/08/08 03:38:58;;;;;;;15.13;3.77;;;;;;;;;;5080461;28;20440;-74
2022/08/08 03:41:41;;;;;;;3.50;2.80;;;;;;;;;;5052994;28;20483;-74
2022/08/08 03:44:32;;;;;;;6.13;4.20;;;;;;;;;;5070869;28;20482;-74
2022/08/08 03:47:01;;;;;;;5.10;3.77;;;;;;;;;;5085226;28;20452;-74
2022/08/08 03:49:47;;;;;;;4.00;3.40;;;;;;;;;;5085145;28;20432;-74
2022/08/08 03:52:32;;;;;;;4.47;4.00;;;;;;;;;;5075974;28;20443;-74
2022/08/08 03:55:07;;;;;;;5.33;3.50;;;;;;;;;;5093426;28;20939;-74
2022/08/08 03:57:55;;;;;;;4.67;3.47;;;;;;;;;;5055167;28;20508;-74
2022/08/08 04:00:47;;;;;;;4.13;3.50;;;;;;;;;;5066780;28;20886;-74
2022/08/08 04:03:34;;;;;;;6.50;3.53;;;;;;;;;;5066585;28;21081;-74
2022/08/08 04:06:21;;;;;;;8.50;4.40;;;;;;;;;;5077597;28;20912;-73
2022/08/08 04:08:48;;;;;;;3.60;3.00;;;;;;;;;;5089917;28;20442;-73
2022/08/08 04:11:21;;;;;;;5.13;3.40;;;;;;;;;;5062622;28;20843;-73
2022/08/08 04:13:51;;;;;;;3.70;3.40;;;;;;;;;;5045801;28;20959;-73
2022/08/08 04:16:39;;;;;;;6.90;3.77;;;;;;;;;;5074572;28;20444;-73
2022/08/08 04:19:09;;;;;;;6.17;3.63;;;;;;;;;;5079833;28;20459;-73
2022/08/08 04:21:56;;;;;;;3.30;2.63;;;;;;;;;;5089762;28;20566;-73
2022/08/08 04:24:26;;;;;;;4.80;4.50;;;;;;;;;;5090035;28;20432;-73
2022/08/08 04:26:59;;;;;;;3.57;3.13;;;;;;;;;;5083185;28;20475;-73
2022/08/08 04:29:28;;;;;;;3.23;2.90;;;;;;;;;;5083460;28;20439;-73
2022/08/08 04:32:05;;;;;;;4.50;3.50;;;;;;;;;;5061388;28;20425;-73
2022/08/08 04:34:33;;;;;;;4.60;3.53;;;;;;;;;;5080800;28;20951;-73
2022/08/08 04:37:19;;;;;;;3.70;3.40;;;;;;;;;;5089873;28;20455;-73
2022/08/08 04:39:58;;;;;;;10.97;3.10;;;;;;;;;;5083394;28;20523;-73
2022/08/08 04:42:39;;;;;;;8.40;3.10;;;;;;;;;;5069557;28;20495;-73
2022/08/08 04:45:25;;;;;;;3.67;2.70;;;;;;;;;;5081176;28;20435;-73
2022/08/08 04:47:57;;;;;;;3.20;3.00;;;;;;;;;;5059920;28;20459;-73
2022/08/08 04:50:28;;;;;;;16.57;4.80;;;;;;;;;;5076489;28;20458;-73
2022/08/08 04:53:05;;;;;;;4.40;3.00;;;;;;;;;;5066753;28;20471;-73
2022/08/08 04:55:52;;;;;;;6.10;3.10;;;;;;;;;;5072105;28;20448;-73
2022/08/08 04:58:25;;;;;;;5.33;3.17;;;;;;;;;;5053807;28;20449;-73
2022/08/08 05:00:52;;;;;;;6.93;3.40;;;;;;;;;;5085014;28;20436;-73
2022/08/08 05:03:19;;;;;;;6.97;3.30;;;;;;;;;;5073250;28;20494;-73
2022/08/08 05:06:06;;;;;;;6.53;3.50;;;;;;;;;;5074267;28;20432;-73
2022/08/08 05:08:41;;;;;;;5.33;3.20;;;;;;;;;;5082306;28;20461;-73
2022/08/08 05:11:12;;;;;;;5.73;2.90;;;;;;;;;;5080545;28;20441;-73
2022/08/08 05:13:48;;;;;;;5.10;3.20;;;;;;;;;;5063153;28;20526;-73
2022/08/08 05:16:29;;;;;;;3.57;2.90;;;;;;;;;;5080858;28;21266;-73
2022/08/08 05:19:16;;;;;;;3.50;3.20;;;;;;;;;;5083165;28;20432;-73
2022/08/08 05:22:05;;;;;;;6.33;2.80;;;;;;;;;;5072837;28;20464;-73
2022/08/08 05:24:33;;;;;;;4.73;3.50;;;;;;;;;;5056299;28;20436;-73
2022/08/08 05:27:03;;;;;;;4.73;3.30;;;;;;;;;;5082297;28;20437;-73
2022/08/08 05:29:30;;;;;;;4.37;3.93;;;;;;;;;;5066597;28;20963;-73
2022/08/08 05:32:06;;;;;;;7.07;3.43;;;;;;;;;;5072754;28;20436;-73
2022/08/08 05:34:35;;;;;;;3.50;3.20;;;;;;;;;;5059547;28;20441;-73
2022/08/08 05:37:03;;;;;;;6.40;2.90;;;;;;;;;;5072646;28;20452;-73
2022/08/08 05:39:44;;;;;;;6.27;3.50;;;;;;;;;;5092227;28;20564;-73
2022/08/08 05:42:13;;;;;;;4.60;4.20;;;;;;;;;;5080887;28;20456;-73
2022/08/08 05:44:43;;;;;;;4.63;3.10;;;;;;;;;;5083926;28;20806;-73
2022/08/08 05:47:11;;;;;;;3.63;3.13;;;;;;;;;;5065129;28;20452;-73
2022/08/08 05:49:40;;;;;;;8.40;3.53;;;;;;;;;;5078508;28;20431;-74
2022/08/08 05:52:20;;;;;;;3.07;2.87;;;;;;;;;;5060584;28;20952;-73
2022/08/08 05:55:01;;;;;;;3.40;3.10;;;;;;;;;;5092539;28;20515;-73
2022/08/08 05:57:37;;;;;;;7.70;4.00;;;;;;;;;;5074097;28;20975;-73
2022/08/08 06:00:29;;;;;;;2.87;2.67;;;;;;;;;;5075706;28;20787;-73
2022/08/08 06:03:10;;;;;;;4.20;3.23;;;;;;;;;;5062620;28;20457;-73
2022/08/08 06:05:53;;;;;;;3.00;2.80;;;;;;;;;;5082305;28;20464;-73
2022/08/08 06:08:24;;;;;;;4.43;2.90;;;;;;;;;;5080320;28;20927;-73
2022/08/08 06:11:04;;;;;;;3.50;2.53;;;;;;;;;;5072661;28;21025;-73
2022/08/08 06:13:33;;;;;;;2.90;2.30;;;;;;;;;;5061331;28;20438;-73
2022/08/08 06:16:14;;;;;;;2.80;2.60;;;;;;;;;;5092169;28;20432;-73
2022/08/08 06:19:07;;;;;;;2.50;2.30;;;;;;;;;;5082093;28;20519;-73
2022/08/08 06:21:40;;;;;;;2.50;2.30;;;;;;;;;;5075111;28;20452;-74
2022/08/08 06:24:22;;;;;;;2.60;2.40;;;;;;;;;;5069735;28;21014;-74
2022/08/08 06:27:04;;;;;;;2.47;2.37;;;;;;;;;;5076164;28;20885;-73
2022/08/08 06:29:34;;;;;;;2.80;2.60;;;;;;;;;;5076633;28;20527;-73
2022/08/08 06:32:26;;;;;;;2.17;2.07;;;;;;;;;;5083373;28;20863;-74
2022/08/08 06:34:56;;;;;;;2.83;2.20;;;;;;;;;;5075231;28;20953;-74
2022/08/08 06:37:59;;;;;;;5.03;2.30;;;;;;;;;;5074796;28;20465;-74
2022/08/08 06:40:30;;;;;;;2.63;2.40;;;;;;;;;;5083875;28;20499;-74
2022/08/08 06:43:07;;;;;;;2.37;2.27;;;;;;;;;;5091532;28;20467;-73
2022/08/08 06:45:50;;;;;;;4.90;2.47;;;;;;;;;;5077818;28;20509;-73
2022/08/08 06:48:17;;;;;;;2.20;2.00;;;;;;;;;;5065849;28;20465;-73
2022/08/08 06:50:48;;;;;;;2.67;2.23;;;;;;;;;;5058547;28;20498;-73
2022/08/08 06:53:19;;;;;;;2.30;2.10;;;;;;;;;;5071381;28;20471;-73
2022/08/08 06:55:54;;;;;;;2.27;1.70;;;;;;;;;;5066091;28;20809;-73
2022/08/08 06:58:32;;;;;;;4.90;2.23;;;;;;;;;;5078277;28;20463;-74
2022/08/08 07:01:03;;;;;;;3.33;3.03;;;;;;;;;;5078887;28;20526;-73
2022/08/08 07:03:52;;;;;;;2.97;2.07;;;;;;;;;;5073682;28;20425;-73
2022/08/08 07:06:42;;;;;;;2.57;2.33;;;;;;;;;;5070836;28;20497;-74
2022/08/08 07:09:13;;;;;;;2.07;1.90;;;;;;;;;;5071403;28;20425;-74
2022/08/08 07:11:46;;;;;;;2.10;1.90;;;;;;;;;;5067019;28;20996;-74
2022/08/08 07:14:23;;;;;;;2.47;2.27;;;;;;;;;;5081923;28;20435;-74
2022/08/08 07:17:02;;;;;;;2.10;2.00;;;;;;;;;;5067559;28;20554;-74
2022/08/08 07:19:57;;;;;;;3.23;2.47;;;;;;;;;;5074675;28;20535;-74
2022/08/08 07:22:32;;;;;;;2.77;1.60;;;;;;;;;;5068897;28;20464;-74
2022/08/08 07:25:01;;;;;;;3.53;1.50;;;;;;;;;;5077156;28;20931;-74
2022/08/08 07:27:34;;;;;;;1.60;1.50;;;;;;;;;;5092264;28;20467;-74
2022/08/08 07:30:21;;;;;;;1.77;1.67;;;;;;;;;;5059399;28;20405;-74
2022/08/08 07:32:56;;;;;;;2.70;1.70;;;;;;;;;;5072446;28;20435;-74
2022/08/08 07:35:26;;;;;;;3.40;1.53;;;;;;;;;;5081611;28;20435;-74
2022/08/08 07:37:55;;;;;;;2.83;1.60;;;;;;;;;;5076106;28;20461;-74
2022/08/08 07:40:47;;;;;;;2.90;1.90;;;;;;;;;;5090463;28;20427;-74
2022/08/08 07:43:20;;;;;;;3.37;1.60;;;;;;;;;;5063204;28;20564;-74
2022/08/08 07:46:04;;;;;;;8.20;1.80;;;;;;;;;;5080015;28;20905;-74
2022/08/08 07:48:54;;;;;;;2.60;2.40;;;;;;;;;;5056725;28;20468;-74
2022/08/08 07:51:21;;;;;;;1.77;1.67;;;;;;;;;;5053520;28;20435;-74
2022/08/08 07:54:27;;;;;;;3.37;1.40;;;;;;;;;;5083742;28;20435;-74
2022/08/08 07:57:01;;;;;;;2.53;1.43;;;;;;;;;;5066915;28;20456;-74
2022/08/08 07:59:34;;;;;;;1.60;1.50;;;;;;;;;;5090135;28;20443;-74
2022/08/08 08:02:07;;;;;;;1.70;1.60;;;;;;;;;;5088819;28;20581;-74
2022/08/08 08:04:59;;;;;;;3.87;1.40;;;;;;;;;;5070129;28;20429;-74
2022/08/08 08:07:33;;;;;;;1.57;1.40;;;;;;;;;;5083432;28;20462;-74
2022/08/08 08:10:07;;;;;;;2.67;1.70;;;;;;;;;;5069835;28;20437;-74
2022/08/08 08:12:43;;;;;;;4.00;1.40;;;;;;;;;;5045298;28;20448;-74
2022/08/08 08:15:14;;;;;;;3.60;1.50;;;;;;;;;;5066885;28;20497;-74
2022/08/08 08:17:44;;;;;;;2.57;1.30;;;;;;;;;;5076122;28;21044;-74
2022/08/08 08:20:19;;;;;;;1.70;1.60;;;;;;;;;;5068490;28;20495;-74
2022/08/08 08:22:48;;;;;;;1.57;1.20;;;;;;;;;;5074872;28;20471;-74
2022/08/08 08:25:15;;;;;;;1.70;1.30;;;;;;;;;;5070197;28;20967;-74
2022/08/08 08:27:45;;;;;;;1.50;1.40;;;;;;;;;;5056179;28;20456;-74
2022/08/08 08:30:13;;;;;;;1.67;1.40;;;;;;;;;;5077245;28;20448;-74
2022/08/08 08:32:41;;;;;;;2.23;1.30;;;;;;;;;;5076564;28;20439;-74
2022/08/08 08:35:19;;;;;;;4.50;1.20;;;;;;;;;;5077973;28;20432;-74
2022/08/08 08:37:55;;;;;;;4.30;1.33;;;;;;;;;;5080735;28;20474;-74
2022/08/08 08:40:42;;;;;;;1.40;1.30;;;;;;;;;;5080142;28;20436;-74
2022/08/08 08:43:15;;;;;;;1.23;1.10;;;;;;;;;;5073631;28;20460;-74
2022/08/08 08:45:46;;;;;;;2.70;1.30;;;;;;;;;;5078377;28;20515;-74
2022/08/08 08:48:16;;;;;;;4.20;1.20;;;;;;;;;;5085243;28;20997;-74
2022/08/08 08:50:52;;;;;;;1.40;1.30;;;;;;;;;;5076835;28;20439;-74
2022/08/08 08:53:20;;;;;;;1.73;1.20;;;;;;;;;;5082982;28;20811;-74
2022/08/08 08:56:12;;;;;;;3.77;1.20;;;;;;;;;;5060375;28;20433;-74
2022/08/08 08:58:42;;;;;;;1.70;1.60;;;;;;;;;;5061511;28;20453;-74
2022/08/08 09:01:26;;;;;;;1.40;1.30;;;;;;;;;;5093720;28;20435;-74
2022/08/08 09:03:58;;;;;;;2.53;1.40;;;;;;;;;;5068809;28;20461;-74
2022/08/08 09:06:33;;;;;;;2.27;1.47;;;;;;;;;;5085628;28;20438;-74
2022/08/08 09:09:07;;;;;;;1.70;1.60;;;;;;;;;;5044311;28;20440;-74
2022/08/08 09:12:01;;;;;;;1.30;1.20;;;;;;;;;;5073044;28;20523;-74
2022/08/08 09:14:37;;;;;;;2.53;1.27;;;;;;;;;;5073156;28;20477;-74
2022/08/08 09:17:10;;;;;;;2.33;1.43;;;;;;;;;;5086513;28;20468;-74
2022/08/08 09:19:45;;;;;;;2.07;1.33;;;;;;;;;;5074043;28;20440;-75
2022/08/08 09:22:33;;;;;;;1.83;1.73;;;;;;;;;;5083095;28;20483;-75
2022/08/08 09:25:02;;;;;;;2.30;1.20;;;;;;;;;;5086998;28;20933;-74
2022/08/08 09:27:30;;;;;;;1.40;1.30;;;;;;;;;;5084539;28;20466;-74
2022/08/08 09:30:17;;;;;;;5.13;1.40;;;;;;;;;;5079488;28;20939;-74
2022/08/08 09:32:52;;;;;;;2.77;1.40;;;;;;;;;;5061090;28;21250;-74
2022/08/08 09:35:42;;;;;;;1.37;1.27;;;;;;;;;;5093866;28;20824;-75
2022/08/08 09:38:25;;;;;;;2.00;1.43;;;;;;;;;;5079703;28;21017;-74
2022/08/08 09:40:55;;;;;;;1.50;1.40;;;;;;;;;;5093378;28;20428;-75
2022/08/08 09:43:23;;;;;;;2.27;1.20;;;;;;;;;;5084980;28;20460;-74
2022/08/08 09:46:10;;;;;;;2.10;1.20;;;;;;;;;;5086116;28;20996;-76
2022/08/08 09:48:51;;;;;;;1.50;1.40;;;;;;;;;;5087058;28;20424;-74
2022/08/08 09:51:23;;;;;;;1.50;1.40;;;;;;;;;;5059448;28;20910;-74
2022/08/08 09:53:52;;;;;;;2.00;1.80;;;;;;;;;;5074021;28;20420;-74
2022/08/08 09:56:41;;;;;;;1.50;1.40;;;;;;;;;;5073667;28;20440;-74
2022/08/08 09:59:19;;;;;;;1.40;1.30;;;;;;;;;;5061460;28;20432;-74
2022/08/08 10:02:14;;;;;;;1.40;1.30;;;;;;;;;;5079293;28;20952;-74
2022/08/08 10:04:41;;;;;;;1.50;1.30;;;;;;;;;;5062870;28;20499;-76
2022/08/08 10:07:14;;;;;;;2.43;1.30;;;;;;;;;;5076755;28;20432;-74
2022/08/08 10:09:42;;;;;;;1.40;1.30;;;;;;;;;;5081243;28;20520;-74
2022/08/08 10:12:37;;;;;;;3.33;1.40;;;;;;;;;;5076594;28;20419;-74
2022/08/08 10:15:20;;;;;;;4.00;1.40;;;;;;;;;;5075912;28;20807;-74
2022/08/08 10:17:50;;;;;;;1.43;1.33;;;;;;;;;;5084661;28;20538;-75
2022/08/08 10:20:38;;;;;;;1.67;1.33;;;;;;;;;;5065899;28;20474;-74
2022/08/08 10:23:11;;;;;;;1.17;1.07;;;;;;;;;;5091366;28;20456;-76
2022/08/08 10:25:46;;;;;;;2.63;1.47;;;;;;;;;;5079607;28;20421;-76
2022/08/08 10:28:22;;;;;;;2.90;1.50;;;;;;;;;;5085670;28;21106;-75
2022/08/08 10:30:53;;;;;;;1.70;1.40;;;;;;;;;;5072128;28;20940;-76
2022/08/08 10:33:31;;;;;;;1.60;1.27;;;;;;;;;;5087114;28;20977;-77
2022/08/08 10:36:22;;;;;;;3.37;1.50;;;;;;;;;;5073408;28;20453;-75
2022/08/08 10:38:51;;;;;;;1.70;1.60;;;;;;;;;;5061415;28;20487;-76
2022/08/08 10:41:20;;;;;;;1.83;1.50;;;;;;;;;;5082300;28;20444;-76
2022/08/08 10:43:48;;;;;;;3.37;1.43;;;;;;;;;;5063610;28;20525;-75
2022/08/08 10:46:27;;;;;;;1.37;1.27;;;;;;;;;;5071985;28;20468;-76
2022/08/08 10:48:57;;;;;;;2.40;1.30;;;;;;;;;;5072370;28;20427;-76
2022/08/08 10:51:25;;;;;;;2.00;1.40;;;;;;;;;;5084435;28;20936;-75
2022/08/08 10:54:06;;;;;;;2.70;1.80;;;;;;;;;;5088548;28;20438;-76
2022/08/08 10:56:33;;;;;;;1.63;1.47;;;;;;;;;;5083116;28;20428;-76
2022/08/08 10:59:06;;;;;;;2.33;1.60;;;;;;;;;;5070597;28;20852;-75
2022/08/08 11:01:35;;;;;;;2.03;1.50;;;;;;;;;;5072807;28;20420;-75
2022/08/08 11:04:05;;;;;;;1.80;1.67;;;;;;;;;;5071453;28;20572;-76
2022/08/08 11:06:37;;;;;;;2.37;1.80;;;;;;;;;;5084977;28;20822;-76
2022/08/08 11:09:12;;;;;;;2.10;1.27;;;;;;;;;;5058712;28;20412;-75
2022/08/08 11:11:46;;;;;;;1.40;1.30;;;;;;;;;;5057748;28;20432;-76
2022/08/08 11:14:33;;;;;;;1.83;1.63;;;;;;;;;;5092216;28;20895;-76
2022/08/08 11:17:01;;;;;;;3.53;1.50;;;;;;;;;;5074572;28;20456;-76
2022/08/08 11:19:31;;;;;;;2.30;1.30;;;;;;;;;;5073028;28;20441;-76
2022/08/08 11:21:59;;;;;;;1.60;1.50;;;;;;;;;;5051444;28;21067;-76
2022/08/08 11:24:30;;;;;;;1.63;1.40;;;;;;;;;;5064867;28;20813;-76
2022/08/08 11:27:00;;;;;;;2.07;1.53;;;;;;;;;;5071353;28;20448;-76
2022/08/08 11:29:36;;;;;;;3.40;1.33;;;;;;;;;;5056233;28;20977;-76
2022/08/08 11:32:27;;;;;;;1.67;1.57;;;;;;;;;;5087934;28;20459;-76
2022/08/08 11:35:01;;;;;;;2.80;1.63;;;;;;;;;;5091760;28;20829;-76
2022/08/08 11:37:48;;;;;;;2.87;1.57;;;;;;;;;;5075777;28;20452;-76
2022/08/08 11:40:34;;;;;;;3.20;2.20;;;;;;;;;;5057431;28;20523;-76
2022/08/08 11:43:01;;;;;;;2.07;1.20;;;;;;;;;;5071100;28;20563;-77
2022/08/08 11:45:28;;;;;;;2.03;1.40;;;;;;;;;;5072282;28;20431;-76
2022/08/08 11:48:14;;;;;;;1.50;1.33;;;;;;;;;;5050823;28;20449;-75
2022/08/08 11:50:46;;;;;;;1.40;1.30;;;;;;;;;;5056030;28;20413;-74
2022/08/08 11:53:20;;;;;;;1.53;1.43;;;;;;;;;;5080998;28;20528;-74
2022/08/08 11:55:50;;;;;;;1.30;1.20;;;;;;;;;;5076109;28;21015;-74
2022/08/08 11:58:18;;;;;;;1.80;1.20;;;;;;;;;;5059694;28;21040;-74
2022/08/08 12:00:49;;;;;;;1.57;1.40;;;;;;;;;;5070816;28;20413;-73
2022/08/08 12:03:21;;;;;;;3.10;1.40;;;;;;;;;;5053789;28;20468;-73
2022/08/08 12:05:50;;;;;;;1.20;1.10;;;;;;;;;;5057268;28;20511;-74
2022/08/08 12:08:28;;;;;;;2.00;1.60;;;;;;;;;;5084854;28;20439;-74
2022/08/08 12:10:58;;;;;;;3.10;1.30;;;;;;;;;;5060144;28;20422;-74
2022/08/08 12:13:26;;;;;;;1.70;1.60;;;;;;;;;;5054290;28;20884;-74
2022/08/08 12:16:11;;;;;;;1.37;1.27;;;;;;;;;;5079564;28;20506;-74
2022/08/08 12:18:44;;;;;;;1.93;1.83;;;;;;;;;;5075960;28;20463;-74
2022/08/08 12:21:20;;;;;;;1.83;1.30;;;;;;;;;;5077526;28;20476;-74
2022/08/08 12:24:11;;;;;;;2.50;1.30;;;;;;;;;;5069663;28;20451;-74
2022/08/08 12:26:42;;;;;;;3.10;1.40;;;;;;;;;;5076544;28;20428;-74
2022/08/08 12:29:20;;;;;;;1.93;1.33;;;;;;;;;;5090170;28;20412;-74
2022/08/08 12:31:47;;;;;;;1.30;1.17;;;;;;;;;;5076322;28;20503;-74
2022/08/08 12:34:31;;;;;;;3.60;1.60;;;;;;;;;;5089525;28;20423;-75
2022/08/08 12:37:04;;;;;;;2.07;1.77;;;;;;;;;;5061049;28;20457;-74
2022/08/08 12:39:34;;;;;;;1.50;1.40;;;;;;;;;;5066701;28;20467;-74
2022/08/08 12:42:20;;;;;;;2.60;1.40;;;;;;;;;;5069614;28;20929;-74
2022/08/08 12:45:03;;;;;;;4.10;1.67;;;;;;;;;;5071183;28;20460;-74
2022/08/08 12:47:57;;;;;;;3.10;1.20;;;;;;;;;;5054267;28;20449;-74
2022/08/08 12:50:44;;;;;;;3.60;1.43;;;;;;;;;;5081733;28;20435;-74
2022/08/08 12:53:19;;;;;;;5.03;1.50;;;;;;;;;;5049592;28;20960;-74
2022/08/08 12:55:58;;;;;;;2.17;1.20;;;;;;;;;;5073638;28;20495;-74
2022/08/08 12:58:49;;;;;;;1.70;1.20;;;;;;;;;;5075137;28;20452;-74
2022/08/08 13:01:16;;;;;;;1.93;1.53;;;;;;;;;;5048020;28;20445;-74
2022/08/08 13:04:10;;;;;;;1.97;1.27;;;;;;;;;;5067824;28;20464;-74
2022/08/08 13:06:51;;;;;;;3.00;1.40;;;;;;;;;;5069224;28;20544;-74
2022/08/08 13:09:27;;;;;;;1.70;1.47;;;;;;;;;;5071129;28;20428;-74
2022/08/08 13:11:58;;;;;;;1.37;1.20;;;;;;;;;;5056233;28;20467;-74
2022/08/08 13:14:46;;;;;;;2.17;1.10;;;;;;;;;;5083550;28;20938;-74
2022/08/08 13:17:24;;;;;;;2.17;1.37;;;;;;;;;;5070631;28;20448;-74
2022/08/08 13:20:10;;;;;;;2.40;2.03;;;;;;;;;;5070406;28;20499;-74
2022/08/08 13:22:38;;;;;;;2.27;1.40;;;;;;;;;;5073728;28;20431;-74
2022/08/08 13:25:11;;;;;;;2.50;1.40;;;;;;;;;;5072960;28;20879;-74
2022/08/08 13:27:40;;;;;;;2.97;1.33;;;;;;;;;;5087972;28;20447;-74
2022/08/08 13:30:07;;;;;;;2.27;1.17;;;;;;;;;;5072862;28;20432;-74
2022/08/08 13:32:37;;;;;;;1.53;1.40;;;;;;;;;;5073980;28;20452;-73
2022/08/08 13:35:06;;;;;;;1.40;1.23;;;;;;;;;;5072686;28;20437;-74
2022/08/08 13:37:50;;;;;;;1.20;1.10;;;;;;;;;;5072170;28;20460;-74
2022/08/08 13:40:33;;;;;;;1.77;1.50;;;;;;;;;;5058489;28;20936;-74
2022/08/08 13:43:01;;;;;;;1.50;1.40;;;;;;;;;;5072894;28;20428;-74
2022/08/08 13:45:29;;;;;;;1.27;1.17;;;;;;;;;;5060545;28;20464;-74
2022/08/08 13:48:00;;;;;;;2.50;1.30;;;;;;;;;;5091492;28;20512;-74
2022/08/08 13:50:31;;;;;;;1.73;1.23;;;;;;;;;;5092726;28;20497;-73
2022/08/08 13:53:05;;;;;;;2.13;1.93;;;;;;;;;;5092696;28;20967;-74
2022/08/08 13:56:01;;;;;;;1.47;1.37;;;;;;;;;;5094151;28;20508;-74
2022/08/08 13:58:28;;;;;;;1.50;1.40;;;;;;;;;;5094312;28;21040;-74
2022/08/08 14:00:55;;;;;;;1.80;1.50;;;;;;;;;;5056274;28;20424;-74
2022/08/08 14:03:26;;;;;;;1.60;1.50;;;;;;;;;;5072316;28;20460;-74
2022/08/08 14:06:12;;;;;;;3.53;1.30;;;;;;;;;;5073568;28;20420;-74
2022/08/08 14:08:59;;;;;;;1.30;1.20;;;;;;;;;;5087322;28;20436;-74
2022/08/08 14:11:46;;;;;;;1.50;1.30;;;;;;;;;;5071183;28;20525;-74
2022/08/08 14:14:14;;;;;;;1.60;1.50;;;;;;;;;;5089217;28;20435;-74
2022/08/08 14:16:50;;;;;;;1.63;1.40;;;;;;;;;;5057122;28;20819;-74
2022/08/08 14:19:17;;;;;;;2.10;1.60;;;;;;;;;;5080219;28;20425;-74
2022/08/08 14:22:14;;;;;;;1.47;1.37;;;;;;;;;;5091391;28;20427;-74
2022/08/08 14:24:51;;;;;;;1.60;1.47;;;;;;;;;;5091822;28;20465;-74
2022/08/08 14:27:34;;;;;;;2.30;1.10;;;;;;;;;;5072093;28;20462;-74
2022/08/08 14:30:08;;;;;;;1.93;1.20;;;;;;;;;;5051824;28;20480;-74
2022/08/08 14:32:51;;;;;;;1.73;1.27;;;;;;;;;;5071911;28;20424;-74
2022/08/08 14:35:20;;;;;;;2.37;1.50;;;;;;;;;;5091988;28;20435;-74
2022/08/08 14:37:49;;;;;;;1.53;1.43;;;;;;;;;;5057970;28;20464;-74
2022/08/08 14:40:29;;;;;;;1.33;1.23;;;;;;;;;;5071541;28;20482;-74
2022/08/08 14:42:59;;;;;;;2.60;1.73;;;;;;;;;;5071561;28;20435;-74
2022/08/08 14:45:46;;;;;;;1.40;1.30;;;;;;;;;;5072625;28;20500;-74
2022/08/08 14:48:49;;;;;;;1.40;1.30;;;;;;;;;;5072644;28;20441;-74
2022/08/08 14:51:25;;;;;;;1.63;1.53;;;;;;;;;;5060192;28;20425;-74
2022/08/08 14:54:11;;;;;;;1.30;1.20;;;;;;;;;;5090201;28;20541;-74
2022/08/08 14:56:40;;;;;;;2.03;1.40;;;;;;;;;;5091264;28;20881;-74
2022/08/08 14:59:10;;;;;;;3.07;1.40;;;;;;;;;;5056541;28;20467;-74
2022/08/08 15:01:57;;;;;;;1.73;1.20;;;;;;;;;;5085636;28;20999;-74
2022/08/08 15:04:24;;;;;;;1.60;1.50;;;;;;;;;;5092575;28;20506;-74
2022/08/08 15:06:51;;;;;;;1.50;1.40;;;;;;;;;;5091226;28;20458;-74
2022/08/08 15:09:19;;;;;;;1.60;1.30;;;;;;;;;;5082733;28;20436;-74
2022/08/08 15:11:48;;;;;;;3.77;1.23;;;;;;;;;;5057737;28;20437;-74
2022/08/08 15:14:19;;;;;;;2.60;1.67;;;;;;;;;;5072199;28;20420;-74
2022/08/08 15:16:50;;;;;;;1.60;1.50;;;;;;;;;;5071970;28;20448;-74
2022/08/08 15:19:17;;;;;;;1.40;1.30;;;;;;;;;;5071420;28;20931;-74
2022/08/08 15:21:45;;;;;;;7.20;1.73;;;;;;;;;;5070861;28;20441;-74
2022/08/08 15:24:12;;;;;;;2.60;1.60;;;;;;;;;;5072086;28;20488;-74
2022/08/08 15:26:43;;;;;;;2.90;1.47;;;;;;;;;;5051299;28;20544;-74
2022/08/08 15:29:18;;;;;;;3.13;1.70;;;;;;;;;;5050648;28;20437;-73
2022/08/08 15:31:50;;;;;;;2.80;1.80;;;;;;;;;;5064166;28;20483;-73
2022/08/08 15:34:36;;;;;;;2.70;1.60;;;;;;;;;;5069000;28;20467;-74
2022/08/08 15:37:05;;;;;;;2.70;1.73;;;;;;;;;;5074360;28;20452;-74
2022/08/08 15:39:34;;;;;;;1.53;1.43;;;;;;;;;;5073941;28;20528;-74
2022/08/08 15:42:06;;;;;;;1.80;1.67;;;;;;;;;;5090608;28;20931;-74
2022/08/08 15:44:39;;;;;;;1.93;1.73;;;;;;;;;;5089970;28;20550;-74
2022/08/08 15:47:07;;;;;;;1.93;1.83;;;;;;;;;;5079408;28;20440;-74
2022/08/08 15:49:45;;;;;;;1.40;1.30;;;;;;;;;;5057332;28;20447;-74
2022/08/08 15:52:14;;;;;;;1.70;1.60;;;;;;;;;;5071540;28;20920;-75
2022/08/08 15:54:41;;;;;;;2.60;1.33;;;;;;;;;;5070245;28;20432;-75